Erstellt am: 01.12.2010, Autor: rk

Flughafen Genf geschlossen

CR Airport Geneva

Der Flughafen Genf ist voraussichtlich bis heute Abend um 18.00 Lokalzeit wegen starken Schneefällen geschlossen.

Der Schnee ist in der Schweiz momentan ziemlich uneinheitlich verteilt. Der Flugverkehr auf dem Grosflughafen Genf ist seit gestern Abend stark gestört, heute Morgen musste der Flughafen sogar geschlossen werden und er wird voraussichtlich bis am Abend um 18.00 geschlossen bleiben. Die Fluggäste werden gebeten nicht zum Flughafen zu kommen und sich regelmässig auf der Homepage oder bei der Fluggesellschaft zu erkundigen, wie sich die Situation am Flughafen weiterentwickelt. Auf dem Flughafen Zürich läuft noch alles rund.
 
Update: Flughafen Genf bleibt geschlossen bis Morgen, dem 2. Dezember 2010, 06.00 Lokalzeit.
 
Update: Flughafen Genf ist wieder geöffnet.
 
METAR Genf: LSGG 011120Z 06004KT 0700 R05/1100N R23/0900N +SN VV004 M01/M01 Q0995 R/SNOCLO NOSIG
 

Flughafen Genf

FliegerWeb News Sendung mit folgenden Themen: Airlines schreiben wieder Gewinne. Erster F-35C Lightning II in Patuxent River eingetroffen. A380 Triebwerkprobleme beim Rolls Royce Trent 900.

Kommentare

Anzeige
FliegerWeb on Facebook:
empfohlen
 
 
Practical
Nike
news
news sitemap

Back to Top